sensor_id;sensor_type;location;lat;lon;timestamp;temperature;humidity
3136;DHT22;1578;47.658;9.922;2024-01-06T00:01:21;5.00;53.50
3136;DHT22;1578;47.658;9.922;2024-01-06T00:03:47;5.00;52.70
3136;DHT22;1578;47.658;9.922;2024-01-06T00:06:15;4.90;52.60
3136;DHT22;1578;47.658;9.922;2024-01-06T00:08:42;4.80;53.40
3136;DHT22;1578;47.658;9.922;2024-01-06T00:11:07;4.70;54.20
3136;DHT22;1578;47.658;9.922;2024-01-06T00:13:33;4.80;53.80
3136;DHT22;1578;47.658;9.922;2024-01-06T00:16:00;4.70;52.40
3136;DHT22;1578;47.658;9.922;2024-01-06T00:18:26;4.70;52.40
3136;DHT22;1578;47.658;9.922;2024-01-06T00:20:51;4.60;52.30
3136;DHT22;1578;47.658;9.922;2024-01-06T00:23:17;4.60;51.90
3136;DHT22;1578;47.658;9.922;2024-01-06T00:25:43;4.50;53.00
3136;DHT22;1578;47.658;9.922;2024-01-06T00:28:08;4.50;52.60
3136;DHT22;1578;47.658;9.922;2024-01-06T00:30:34;4.30;53.40
3136;DHT22;1578;47.658;9.922;2024-01-06T00:33:00;4.40;54.00
3136;DHT22;1578;47.658;9.922;2024-01-06T00:35:25;4.40;52.80
3136;DHT22;1578;47.658;9.922;2024-01-06T00:37:51;4.50;51.90
3136;DHT22;1578;47.658;9.922;2024-01-06T00:40:16;4.50;51.10
3136;DHT22;1578;47.658;9.922;2024-01-06T00:42:44;4.50;51.40
3136;DHT22;1578;47.658;9.922;2024-01-06T00:45:09;4.50;51.30
3136;DHT22;1578;47.658;9.922;2024-01-06T00:47:35;4.50;51.10
3136;DHT22;1578;47.658;9.922;2024-01-06T00:50:00;4.40;51.40
3136;DHT22;1578;47.658;9.922;2024-01-06T00:52:26;4.30;52.00
3136;DHT22;1578;47.658;9.922;2024-01-06T00:54:52;4.40;52.10
3136;DHT22;1578;47.658;9.922;2024-01-06T00:57:17;4.30;52.00
3136;DHT22;1578;47.658;9.922;2024-01-06T00:59:43;4.40;52.70
3136;DHT22;1578;47.658;9.922;2024-01-06T01:02:08;4.30;52.00
3136;DHT22;1578;47.658;9.922;2024-01-06T01:04:34;4.30;52.00
3136;DHT22;1578;47.658;9.922;2024-01-06T01:06:59;4.30;52.00
3136;DHT22;1578;47.658;9.922;2024-01-06T01:09:25;4.30;51.80
3136;DHT22;1578;47.658;9.922;2024-01-06T01:11:50;4.30;51.50
3136;DHT22;1578;47.658;9.922;2024-01-06T01:14:16;4.30;50.70
3136;DHT22;1578;47.658;9.922;2024-01-06T01:16:44;4.20;51.10
3136;DHT22;1578;47.658;9.922;2024-01-06T01:19:09;4.10;52.30
3136;DHT22;1578;47.658;9.922;2024-01-06T01:21:35;4.10;52.60
3136;DHT22;1578;47.658;9.922;2024-01-06T01:24:00;4.20;52.20
3136;DHT22;1578;47.658;9.922;2024-01-06T01:26:26;4.30;52.50
3136;DHT22;1578;47.658;9.922;2024-01-06T01:28:51;4.30;51.60
3136;DHT22;1578;47.658;9.922;2024-01-06T01:31:17;4.30;51.80
3136;DHT22;1578;47.658;9.922;2024-01-06T01:33:42;4.20;51.50
3136;DHT22;1578;47.658;9.922;2024-01-06T01:36:08;4.30;52.00
3136;DHT22;1578;47.658;9.922;2024-01-06T01:38:34;4.30;51.40
3136;DHT22;1578;47.658;9.922;2024-01-06T01:40:59;4.30;51.40
3136;DHT22;1578;47.658;9.922;2024-01-06T01:43:25;4.30;51.50
3136;DHT22;1578;47.658;9.922;2024-01-06T01:45:53;4.20;51.40
3136;DHT22;1578;47.658;9.922;2024-01-06T01:48:20;4.20;52.00
3136;DHT22;1578;47.658;9.922;2024-01-06T01:50:46;4.30;51.50
3136;DHT22;1578;47.658;9.922;2024-01-06T01:53:12;4.30;50.80
3136;DHT22;1578;47.658;9.922;2024-01-06T01:55:40;4.30;51.10
3136;DHT22;1578;47.658;9.922;2024-01-06T01:58:06;4.30;51.10
3136;DHT22;1578;47.658;9.922;2024-01-06T02:00:32;4.30;51.20
3136;DHT22;1578;47.658;9.922;2024-01-06T02:02:59;4.30;50.80
3136;DHT22;1578;47.658;9.922;2024-01-06T02:05:25;4.20;51.00
3136;DHT22;1578;47.658;9.922;2024-01-06T02:07:50;4.10;50.80
3136;DHT22;1578;47.658;9.922;2024-01-06T02:10:17;4.00;50.60
3136;DHT22;1578;47.658;9.922;2024-01-06T02:12:43;3.90;51.70
3136;DHT22;1578;47.658;9.922;2024-01-06T02:15:09;3.90;51.70
3136;DHT22;1578;47.658;9.922;2024-01-06T02:17:34;3.90;51.20
3136;DHT22;1578;47.658;9.922;2024-01-06T02:20:00;3.90;50.80
3136;DHT22;1578;47.658;9.922;2024-01-06T02:22:25;3.80;51.20
3136;DHT22;1578;47.658;9.922;2024-01-06T02:24:51;3.80;51.60
3136;DHT22;1578;47.658;9.922;2024-01-06T02:27:16;3.80;51.60
3136;DHT22;1578;47.658;9.922;2024-01-06T02:29:42;3.70;51.50
3136;DHT22;1578;47.658;9.922;2024-01-06T02:32:08;3.50;52.40
3136;DHT22;1578;47.658;9.922;2024-01-06T02:34:33;3.40;53.00
3136;DHT22;1578;47.658;9.922;2024-01-06T02:37:00;3.40;53.90
3136;DHT22;1578;47.658;9.922;2024-01-06T02:39:25;3.50;54.40
3136;DHT22;1578;47.658;9.922;2024-01-06T02:41:51;3.50;53.50
3136;DHT22;1578;47.658;9.922;2024-01-06T02:44:16;3.50;53.80
3136;DHT22;1578;47.658;9.922;2024-01-06T02:46:42;3.50;52.90
3136;DHT22;1578;47.658;9.922;2024-01-06T02:49:08;3.40;53.00
3136;DHT22;1578;47.658;9.922;2024-01-06T02:51:34;3.40;53.50
3136;DHT22;1578;47.658;9.922;2024-01-06T02:53:59;3.40;53.50
3136;DHT22;1578;47.658;9.922;2024-01-06T02:56:25;3.40;52.50
3136;DHT22;1578;47.658;9.922;2024-01-06T02:58:51;3.40;53.20
3136;DHT22;1578;47.658;9.922;2024-01-06T03:01:17;3.30;53.40
3136;DHT22;1578;47.658;9.922;2024-01-06T03:03:43;3.40;53.60
3136;DHT22;1578;47.658;9.922;2024-01-06T03:06:08;3.40;52.80
3136;DHT22;1578;47.658;9.922;2024-01-06T03:08:34;3.30;51.20
3136;DHT22;1578;47.658;9.922;2024-01-06T03:11:00;3.30;52.40
3136;DHT22;1578;47.658;9.922;2024-01-06T03:13:26;3.20;51.10
3136;DHT22;1578;47.658;9.922;2024-01-06T03:15:52;3.10;51.60
3136;DHT22;1578;47.658;9.922;2024-01-06T03:18:17;3.10;52.20
3136;DHT22;1578;47.658;9.922;2024-01-06T03:20:43;3.00;52.70
3136;DHT22;1578;47.658;9.922;2024-01-06T03:23:08;2.90;53.20
3136;DHT22;1578;47.658;9.922;2024-01-06T03:25:34;2.80;54.00
3136;DHT22;1578;47.658;9.922;2024-01-06T03:27:59;2.70;53.90
3136;DHT22;1578;47.658;9.922;2024-01-06T03:30:25;2.80;54.40
3136;DHT22;1578;47.658;9.922;2024-01-06T03:32:50;2.80;55.30
3136;DHT22;1578;47.658;9.922;2024-01-06T03:35:16;2.80;55.30
3136;DHT22;1578;47.658;9.922;2024-01-06T03:37:43;2.90;54.80
3136;DHT22;1578;47.658;9.922;2024-01-06T03:40:09;2.90;54.20
3136;DHT22;1578;47.658;9.922;2024-01-06T03:42:35;2.80;53.70
3136;DHT22;1578;47.658;9.922;2024-01-06T03:45:02;2.80;54.40
3136;DHT22;1578;47.658;9.922;2024-01-06T03:47:27;2.80;52.00
3136;DHT22;1578;47.658;9.922;2024-01-06T03:49:53;2.80;53.50
3136;DHT22;1578;47.658;9.922;2024-01-06T03:52:19;2.80;53.00
3136;DHT22;1578;47.658;9.922;2024-01-06T03:54:45;2.80;53.10
3136;DHT22;1578;47.658;9.922;2024-01-06T03:57:10;2.70;52.70
3136;DHT22;1578;47.658;9.922;2024-01-06T03:59:36;2.70;52.00
3136;DHT22;1578;47.658;9.922;2024-01-06T04:02:01;2.50;51.30
3136;DHT22;1578;47.658;9.922;2024-01-06T04:04:27;2.40;53.50
3136;DHT22;1578;47.658;9.922;2024-01-06T04:06:53;2.40;53.00
3136;DHT22;1578;47.658;9.922;2024-01-06T04:09:18;2.50;53.50
3136;DHT22;1578;47.658;9.922;2024-01-06T04:11:44;2.50;53.00
3136;DHT22;1578;47.658;9.922;2024-01-06T04:14:09;2.50;53.30
3136;DHT22;1578;47.658;9.922;2024-01-06T04:16:35;2.50;52.30
3136;DHT22;1578;47.658;9.922;2024-01-06T04:19:00;2.40;53.80
3136;DHT22;1578;47.658;9.922;2024-01-06T04:21:26;2.40;53.80
3136;DHT22;1578;47.658;9.922;2024-01-06T04:23:51;2.40;53.50
3136;DHT22;1578;47.658;9.922;2024-01-06T04:26:17;2.40;53.90
3136;DHT22;1578;47.658;9.922;2024-01-06T04:28:43;2.40;54.40
3136;DHT22;1578;47.658;9.922;2024-01-06T04:31:09;2.50;53.60
3136;DHT22;1578;47.658;9.922;2024-01-06T04:33:34;2.40;52.80
3136;DHT22;1578;47.658;9.922;2024-01-06T04:36:01;2.30;52.80
3136;DHT22;1578;47.658;9.922;2024-01-06T04:38:27;2.30;53.50
3136;DHT22;1578;47.658;9.922;2024-01-06T04:40:53;2.30;53.80
3136;DHT22;1578;47.658;9.922;2024-01-06T04:43:18;2.30;54.20
3136;DHT22;1578;47.658;9.922;2024-01-06T04:45:44;2.40;54.20
3136;DHT22;1578;47.658;9.922;2024-01-06T04:48:09;2.30;52.90
3136;DHT22;1578;47.658;9.922;2024-01-06T04:50:35;2.30;53.70
3136;DHT22;1578;47.658;9.922;2024-01-06T04:53:00;2.30;53.60
3136;DHT22;1578;47.658;9.922;2024-01-06T04:55:26;2.30;53.60
3136;DHT22;1578;47.658;9.922;2024-01-06T04:57:51;2.30;53.50
3136;DHT22;1578;47.658;9.922;2024-01-06T05:00:18;2.30;53.50
3136;DHT22;1578;47.658;9.922;2024-01-06T05:02:44;2.20;53.70
3136;DHT22;1578;47.658;9.922;2024-01-06T05:05:09;2.10;54.10
3136;DHT22;1578;47.658;9.922;2024-01-06T05:07:35;2.20;54.80
3136;DHT22;1578;47.658;9.922;2024-01-06T05:10:00;2.20;54.10
3136;DHT22;1578;47.658;9.922;2024-01-06T05:12:26;2.20;54.70
3136;DHT22;1578;47.658;9.922;2024-01-06T05:14:52;2.20;53.80
3136;DHT22;1578;47.658;9.922;2024-01-06T05:17:17;2.20;54.80
3136;DHT22;1578;47.658;9.922;2024-01-06T05:19:43;2.20;54.60
3136;DHT22;1578;47.658;9.922;2024-01-06T05:22:08;2.30;54.50
3136;DHT22;1578;47.658;9.922;2024-01-06T05:24:34;2.30;54.50
3136;DHT22;1578;47.658;9.922;2024-01-06T05:26:59;2.30;54.00
3136;DHT22;1578;47.658;9.922;2024-01-06T05:29:25;2.30;54.20
3136;DHT22;1578;47.658;9.922;2024-01-06T05:31:52;2.30;54.10
3136;DHT22;1578;47.658;9.922;2024-01-06T05:34:17;2.30;54.10
3136;DHT22;1578;47.658;9.922;2024-01-06T05:36:43;2.40;54.10
3136;DHT22;1578;47.658;9.922;2024-01-06T05:39:08;2.40;53.80
3136;DHT22;1578;47.658;9.922;2024-01-06T05:41:40;2.40;53.90
3136;DHT22;1578;47.658;9.922;2024-01-06T05:44:06;2.50;53.30
3136;DHT22;1578;47.658;9.922;2024-01-06T05:46:34;2.40;52.50
3136;DHT22;1578;47.658;9.922;2024-01-06T05:48:59;2.50;53.30
3136;DHT22;1578;47.658;9.922;2024-01-06T05:51:25;2.50;52.80
3136;DHT22;1578;47.658;9.922;2024-01-06T05:53:51;2.50;52.60
3136;DHT22;1578;47.658;9.922;2024-01-06T05:56:26;2.60;52.50
3136;DHT22;1578;47.658;9.922;2024-01-06T05:58:52;2.60;52.00
3136;DHT22;1578;47.658;9.922;2024-01-06T06:01:18;2.50;51.90
3136;DHT22;1578;47.658;9.922;2024-01-06T06:03:45;2.60;51.70
3136;DHT22;1578;47.658;9.922;2024-01-06T06:06:11;2.60;51.00
3136;DHT22;1578;47.658;9.922;2024-01-06T06:08:36;2.50;51.40
3136;DHT22;1578;47.658;9.922;2024-01-06T06:11:02;2.50;51.60
3136;DHT22;1578;47.658;9.922;2024-01-06T06:13:30;2.50;52.20
3136;DHT22;1578;47.658;9.922;2024-01-06T06:15:56;2.60;51.80
3136;DHT22;1578;47.658;9.922;2024-01-06T06:18:23;2.60;51.90
3136;DHT22;1578;47.658;9.922;2024-01-06T06:20:49;2.60;52.00
3136;DHT22;1578;47.658;9.922;2024-01-06T06:23:14;2.60;52.30
3136;DHT22;1578;47.658;9.922;2024-01-06T06:25:40;2.60;51.50
3136;DHT22;1578;47.658;9.922;2024-01-06T06:28:05;2.60;50.90
3136;DHT22;1578;47.658;9.922;2024-01-06T06:30:32;2.50;51.30
3136;DHT22;1578;47.658;9.922;2024-01-06T06:32:58;2.50;51.30
3136;DHT22;1578;47.658;9.922;2024-01-06T06:35:24;2.50;51.60
3136;DHT22;1578;47.658;9.922;2024-01-06T06:37:50;2.50;51.50
3136;DHT22;1578;47.658;9.922;2024-01-06T06:40:15;2.50;51.20
3136;DHT22;1578;47.658;9.922;2024-01-06T06:42:41;2.50;51.30
3136;DHT22;1578;47.658;9.922;2024-01-06T06:45:07;2.50;51.50
3136;DHT22;1578;47.658;9.922;2024-01-06T06:47:33;2.50;51.20
3136;DHT22;1578;47.658;9.922;2024-01-06T06:49:58;2.50;50.50
3136;DHT22;1578;47.658;9.922;2024-01-06T06:52:24;2.50;50.50
3136;DHT22;1578;47.658;9.922;2024-01-06T06:54:49;2.40;50.40
3136;DHT22;1578;47.658;9.922;2024-01-06T06:57:17;2.40;50.40
3136;DHT22;1578;47.658;9.922;2024-01-06T06:59:43;2.40;50.50
3136;DHT22;1578;47.658;9.922;2024-01-06T07:02:08;2.40;50.50
3136;DHT22;1578;47.658;9.922;2024-01-06T07:04:34;2.40;50.50
3136;DHT22;1578;47.658;9.922;2024-01-06T07:07:00;2.40;50.40
3136;DHT22;1578;47.658;9.922;2024-01-06T07:09:25;2.30;50.40
3136;DHT22;1578;47.658;9.922;2024-01-06T07:11:51;2.30;50.40
3136;DHT22;1578;47.658;9.922;2024-01-06T07:14:17;2.30;51.00
3136;DHT22;1578;47.658;9.922;2024-01-06T07:16:43;2.30;51.10
3136;DHT22;1578;47.658;9.922;2024-01-06T07:19:08;2.40;50.60
3136;DHT22;1578;47.658;9.922;2024-01-06T07:21:34;2.40;50.40
3136;DHT22;1578;47.658;9.922;2024-01-06T07:24:00;2.40;50.40
3136;DHT22;1578;47.658;9.922;2024-01-06T07:26:26;2.30;50.40
3136;DHT22;1578;47.658;9.922;2024-01-06T07:28:52;2.30;50.40
3136;DHT22;1578;47.658;9.922;2024-01-06T07:31:18;2.30;50.80
3136;DHT22;1578;47.658;9.922;2024-01-06T07:33:44;2.40;50.50
3136;DHT22;1578;47.658;9.922;2024-01-06T07:36:09;2.40;50.40
3136;DHT22;1578;47.658;9.922;2024-01-06T07:38:36;2.30;50.40
3136;DHT22;1578;47.658;9.922;2024-01-06T07:41:02;2.30;50.40
3136;DHT22;1578;47.658;9.922;2024-01-06T07:43:30;2.30;50.50
3136;DHT22;1578;47.658;9.922;2024-01-06T07:45:55;2.20;50.30
3136;DHT22;1578;47.658;9.922;2024-01-06T07:48:21;2.20;50.50
3136;DHT22;1578;47.658;9.922;2024-01-06T07:50:47;2.20;51.10
3136;DHT22;1578;47.658;9.922;2024-01-06T07:53:13;2.20;51.70
3136;DHT22;1578;47.658;9.922;2024-01-06T07:55:40;2.30;51.60
3136;DHT22;1578;47.658;9.922;2024-01-06T07:58:05;2.30;51.20
3136;DHT22;1578;47.658;9.922;2024-01-06T08:00:31;2.20;50.60
3136;DHT22;1578;47.658;9.922;2024-01-06T08:02:56;2.20;51.50
3136;DHT22;1578;47.658;9.922;2024-01-06T08:05:22;2.10;52.20
3136;DHT22;1578;47.658;9.922;2024-01-06T08:07:48;2.20;52.20
3136;DHT22;1578;47.658;9.922;2024-01-06T08:10:14;2.20;52.50
3136;DHT22;1578;47.658;9.922;2024-01-06T08:12:40;2.20;52.50
3136;DHT22;1578;47.658;9.922;2024-01-06T08:15:06;2.10;52.80
3136;DHT22;1578;47.658;9.922;2024-01-06T08:17:33;2.20;53.20
3136;DHT22;1578;47.658;9.922;2024-01-06T08:19:58;2.20;53.20
3136;DHT22;1578;47.658;9.922;2024-01-06T08:22:25;2.30;53.10
3136;DHT22;1578;47.658;9.922;2024-01-06T08:24:50;2.30;52.80
3136;DHT22;1578;47.658;9.922;2024-01-06T08:27:16;2.30;53.20
3136;DHT22;1578;47.658;9.922;2024-01-06T08:29:41;2.40;53.00
3136;DHT22;1578;47.658;9.922;2024-01-06T08:32:07;2.40;52.70
3136;DHT22;1578;47.658;9.922;2024-01-06T08:34:33;2.50;52.90
3136;DHT22;1578;47.658;9.922;2024-01-06T08:36:58;2.50;52.60
3136;DHT22;1578;47.658;9.922;2024-01-06T08:39:24;2.50;52.70
3136;DHT22;1578;47.658;9.922;2024-01-06T08:41:50;2.50;52.60
3136;DHT22;1578;47.658;9.922;2024-01-06T08:44:16;2.60;52.00
3136;DHT22;1578;47.658;9.922;2024-01-06T08:46:41;2.70;51.50
3136;DHT22;1578;47.658;9.922;2024-01-06T08:49:07;2.70;51.40
3136;DHT22;1578;47.658;9.922;2024-01-06T08:51:33;2.70;51.20
3136;DHT22;1578;47.658;9.922;2024-01-06T08:53:59;2.80;51.30
3136;DHT22;1578;47.658;9.922;2024-01-06T08:56:25;2.80;51.40
3136;DHT22;1578;47.658;9.922;2024-01-06T08:58:51;2.90;50.50
3136;DHT22;1578;47.658;9.922;2024-01-06T09:01:16;2.90;49.70
3136;DHT22;1578;47.658;9.922;2024-01-06T09:03:42;2.90;49.00
3136;DHT22;1578;47.658;9.922;2024-01-06T09:06:07;2.90;49.20
3136;DHT22;1578;47.658;9.922;2024-01-06T09:08:33;2.80;49.20
3136;DHT22;1578;47.658;9.922;2024-01-06T09:10:59;2.70;49.70
3136;DHT22;1578;47.658;9.922;2024-01-06T09:13:25;2.70;50.20
3136;DHT22;1578;47.658;9.922;2024-01-06T09:15:53;2.60;50.60
3136;DHT22;1578;47.658;9.922;2024-01-06T09:18:19;2.60;50.60
3136;DHT22;1578;47.658;9.922;2024-01-06T09:20:44;2.70;51.70
3136;DHT22;1578;47.658;9.922;2024-01-06T09:23:13;2.80;52.20
3136;DHT22;1578;47.658;9.922;2024-01-06T09:25:39;2.90;51.60
3136;DHT22;1578;47.658;9.922;2024-01-06T09:28:07;2.90;51.30
3136;DHT22;1578;47.658;9.922;2024-01-06T09:30:33;3.00;51.20
3136;DHT22;1578;47.658;9.922;2024-01-06T09:32:58;3.00;50.90
3136;DHT22;1578;47.658;9.922;2024-01-06T09:35:24;3.10;51.00
3136;DHT22;1578;47.658;9.922;2024-01-06T09:37:49;3.10;50.10
3136;DHT22;1578;47.658;9.922;2024-01-06T09:40:22;3.20;49.50
3136;DHT22;1578;47.658;9.922;2024-01-06T09:42:49;3.20;48.50
3136;DHT22;1578;47.658;9.922;2024-01-06T09:45:15;3.20;48.00
3136;DHT22;1578;47.658;9.922;2024-01-06T09:47:41;3.20;48.40
3136;DHT22;1578;47.658;9.922;2024-01-06T09:50:09;3.10;48.20
3136;DHT22;1578;47.658;9.922;2024-01-06T09:52:40;3.20;48.90
3136;DHT22;1578;47.658;9.922;2024-01-06T09:55:12;3.20;48.90
3136;DHT22;1578;47.658;9.922;2024-01-06T09:57:38;3.30;47.70
3136;DHT22;1578;47.658;9.922;2024-01-06T10:00:05;3.30;47.00
3136;DHT22;1578;47.658;9.922;2024-01-06T10:02:30;3.30;46.60
3136;DHT22;1578;47.658;9.922;2024-01-06T10:04:59;3.30;47.30
3136;DHT22;1578;47.658;9.922;2024-01-06T10:07:28;3.40;46.30
3136;DHT22;1578;47.658;9.922;2024-01-06T10:09:55;3.40;45.70
3136;DHT22;1578;47.658;9.922;2024-01-06T10:12:24;3.40;45.50
3136;DHT22;1578;47.658;9.922;2024-01-06T10:14:50;3.40;46.00
3136;DHT22;1578;47.658;9.922;2024-01-06T10:17:16;3.40;46.40
3136;DHT22;1578;47.658;9.922;2024-01-06T10:19:45;3.40;45.60
3136;DHT22;1578;47.658;9.922;2024-01-06T10:22:10;3.40;46.10
3136;DHT22;1578;47.658;9.922;2024-01-06T10:24:39;3.30;46.90
3136;DHT22;1578;47.658;9.922;2024-01-06T10:27:05;3.40;47.80
3136;DHT22;1578;47.658;9.922;2024-01-06T10:29:31;3.40;47.70
3136;DHT22;1578;47.658;9.922;2024-01-06T10:31:58;3.50;47.00
3136;DHT22;1578;47.658;9.922;2024-01-06T10:34:23;3.60;46.90
3136;DHT22;1578;47.658;9.922;2024-01-06T10:36:50;3.60;46.70
3136;DHT22;1578;47.658;9.922;2024-01-06T10:39:18;3.60;46.80
3136;DHT22;1578;47.658;9.922;2024-01-06T10:41:44;3.50;46.70
3136;DHT22;1578;47.658;9.922;2024-01-06T10:44:12;3.60;47.10
3136;DHT22;1578;47.658;9.922;2024-01-06T10:46:41;3.60;46.80
3136;DHT22;1578;47.658;9.922;2024-01-06T10:49:09;3.70;46.00
3136;DHT22;1578;47.658;9.922;2024-01-06T10:51:38;3.60;45.90
3136;DHT22;1578;47.658;9.922;2024-01-06T10:54:04;3.50;46.90
3136;DHT22;1578;47.658;9.922;2024-01-06T10:56:36;3.50;47.50
3136;DHT22;1578;47.658;9.922;2024-01-06T10:59:03;3.60;46.90
3136;DHT22;1578;47.658;9.922;2024-01-06T11:01:29;3.60;46.60
3136;DHT22;1578;47.658;9.922;2024-01-06T11:03:55;3.60;45.80
3136;DHT22;1578;47.658;9.922;2024-01-06T11:06:21;3.70;46.30
3136;DHT22;1578;47.658;9.922;2024-01-06T11:09:11;3.60;46.90
3136;DHT22;1578;47.658;9.922;2024-01-06T11:11:38;3.60;47.90
3136;DHT22;1578;47.658;9.922;2024-01-06T11:14:24;3.60;47.30
3136;DHT22;1578;47.658;9.922;2024-01-06T11:16:51;3.50;48.40
3136;DHT22;1578;47.658;9.922;2024-01-06T11:22:29;3.80;48.00
3136;DHT22;1578;47.658;9.922;2024-01-06T11:25:14;3.80;46.50
3136;DHT22;1578;47.658;9.922;2024-01-06T11:27:45;3.80;46.30
3136;DHT22;1578;47.658;9.922;2024-01-06T11:30:25;3.90;45.90
3136;DHT22;1578;47.658;9.922;2024-01-06T11:32:53;3.90;47.00
3136;DHT22;1578;47.658;9.922;2024-01-06T11:35:19;4.00;47.20
3136;DHT22;1578;47.658;9.922;2024-01-06T11:45:24;4.40;44.60
3136;DHT22;1578;47.658;9.922;2024-01-06T11:47:58;4.40;44.40
3136;DHT22;1578;47.658;9.922;2024-01-06T11:50:28;4.40;43.90
3136;DHT22;1578;47.658;9.922;2024-01-06T11:52:54;4.50;42.90
3136;DHT22;1578;47.658;9.922;2024-01-06T11:55:21;4.50;42.90
3136;DHT22;1578;47.658;9.922;2024-01-06T11:57:47;4.40;42.90
3136;DHT22;1578;47.658;9.922;2024-01-06T12:00:16;4.40;42.60
3136;DHT22;1578;47.658;9.922;2024-01-06T12:02:42;4.30;43.50
3136;DHT22;1578;47.658;9.922;2024-01-06T12:05:15;4.30;43.60
3136;DHT22;1578;47.658;9.922;2024-01-06T12:07:52;4.10;44.70
3136;DHT22;1578;47.658;9.922;2024-01-06T12:10:21;4.10;44.70
3136;DHT22;1578;47.658;9.922;2024-01-06T12:13:04;3.90;47.10
3136;DHT22;1578;47.658;9.922;2024-01-06T12:15:31;4.10;46.40
3136;DHT22;1578;47.658;9.922;2024-01-06T12:17:57;4.00;47.20
3136;DHT22;1578;47.658;9.922;2024-01-06T12:20:24;4.00;45.40
3136;DHT22;1578;47.658;9.922;2024-01-06T12:22:54;4.00;45.40
3136;DHT22;1578;47.658;9.922;2024-01-06T12:25:25;4.00;45.70
3136;DHT22;1578;47.658;9.922;2024-01-06T12:27:52;4.00;47.20
3136;DHT22;1578;47.658;9.922;2024-01-06T12:30:21;4.00;46.60
3136;DHT22;1578;47.658;9.922;2024-01-06T12:32:47;3.90;47.10
3136;DHT22;1578;47.658;9.922;2024-01-06T12:35:18;4.00;47.20
3136;DHT22;1578;47.658;9.922;2024-01-06T12:37:44;4.10;47.80
3136;DHT22;1578;47.658;9.922;2024-01-06T12:40:14;4.10;47.50
3136;DHT22;1578;47.658;9.922;2024-01-06T12:42:42;4.20;46.60
3136;DHT22;1578;47.658;9.922;2024-01-06T12:45:08;4.20;46.30
3136;DHT22;1578;47.658;9.922;2024-01-06T12:47:35;4.30;47.00
3136;DHT22;1578;47.658;9.922;2024-01-06T12:50:02;4.30;46.40
3136;DHT22;1578;47.658;9.922;2024-01-06T12:52:30;4.40;45.70
3136;DHT22;1578;47.658;9.922;2024-01-06T12:54:55;4.40;44.90
3136;DHT22;1578;47.658;9.922;2024-01-06T12:57:21;4.50;44.90
3136;DHT22;1578;47.658;9.922;2024-01-06T12:59:47;4.40;45.20
3136;DHT22;1578;47.658;9.922;2024-01-06T13:02:12;4.40;45.60
3136;DHT22;1578;47.658;9.922;2024-01-06T13:04:38;4.40;45.40
3136;DHT22;1578;47.658;9.922;2024-01-06T13:07:04;4.30;45.60
3136;DHT22;1578;47.658;9.922;2024-01-06T13:09:30;4.30;45.00
3136;DHT22;1578;47.658;9.922;2024-01-06T13:11:55;4.40;45.50
3136;DHT22;1578;47.658;9.922;2024-01-06T13:14:28;4.40;45.20
3136;DHT22;1578;47.658;9.922;2024-01-06T13:16:55;4.40;45.20
3136;DHT22;1578;47.658;9.922;2024-01-06T13:19:21;4.30;45.20
3136;DHT22;1578;47.658;9.922;2024-01-06T13:21:47;4.30;45.40
3136;DHT22;1578;47.658;9.922;2024-01-06T13:24:12;4.10;44.70
3136;DHT22;1578;47.658;9.922;2024-01-06T13:26:38;4.00;45.70
3136;DHT22;1578;47.658;9.922;2024-01-06T13:29:04;4.10;46.70
3136;DHT22;1578;47.658;9.922;2024-01-06T13:31:30;4.00;46.20
3136;DHT22;1578;47.658;9.922;2024-01-06T13:33:56;4.10;45.80
3136;DHT22;1578;47.658;9.922;2024-01-06T13:36:22;4.00;45.00
3136;DHT22;1578;47.658;9.922;2024-01-06T13:38:48;4.00;44.80
3136;DHT22;1578;47.658;9.922;2024-01-06T13:41:15;4.00;45.60
3136;DHT22;1578;47.658;9.922;2024-01-06T13:43:41;4.00;45.20
3136;DHT22;1578;47.658;9.922;2024-01-06T13:46:06;3.80;45.30
3136;DHT22;1578;47.658;9.922;2024-01-06T13:48:32;3.70;46.40
3136;DHT22;1578;47.658;9.922;2024-01-06T13:50:58;3.70;46.90
3136;DHT22;1578;47.658;9.922;2024-01-06T13:53:24;3.60;48.20
3136;DHT22;1578;47.658;9.922;2024-01-06T13:55:50;3.60;49.70
3136;DHT22;1578;47.658;9.922;2024-01-06T13:58:17;3.60;50.40
3136;DHT22;1578;47.658;9.922;2024-01-06T14:00:44;3.60;49.80
3136;DHT22;1578;47.658;9.922;2024-01-06T14:03:10;3.60;48.80
3136;DHT22;1578;47.658;9.922;2024-01-06T14:05:36;3.50;48.30
3136;DHT22;1578;47.658;9.922;2024-01-06T14:08:03;3.40;50.10
3136;DHT22;1578;47.658;9.922;2024-01-06T14:10:29;3.40;51.30
3136;DHT22;1578;47.658;9.922;2024-01-06T14:12:57;3.40;52.20
3136;DHT22;1578;47.658;9.922;2024-01-06T14:15:23;3.50;51.40
3136;DHT22;1578;47.658;9.922;2024-01-06T14:17:49;3.50;51.40
3136;DHT22;1578;47.658;9.922;2024-01-06T14:20:16;3.60;51.40
3136;DHT22;1578;47.658;9.922;2024-01-06T14:22:44;3.60;50.60
3136;DHT22;1578;47.658;9.922;2024-01-06T14:25:10;3.60;50.40
3136;DHT22;1578;47.658;9.922;2024-01-06T14:27:35;3.70;49.80
3136;DHT22;1578;47.658;9.922;2024-01-06T14:30:01;3.70;49.50
3136;DHT22;1578;47.658;9.922;2024-01-06T14:32:27;3.70;49.40
3136;DHT22;1578;47.658;9.922;2024-01-06T14:34:53;3.70;48.70
3136;DHT22;1578;47.658;9.922;2024-01-06T14:37:18;3.70;48.50
3136;DHT22;1578;47.658;9.922;2024-01-06T14:39:44;3.70;48.90
3136;DHT22;1578;47.658;9.922;2024-01-06T14:42:09;3.70;48.50
3136;DHT22;1578;47.658;9.922;2024-01-06T14:44:35;3.70;48.30
3136;DHT22;1578;47.658;9.922;2024-01-06T14:47:01;3.70;48.80
3136;DHT22;1578;47.658;9.922;2024-01-06T14:49:27;3.60;49.10
3136;DHT22;1578;47.658;9.922;2024-01-06T14:51:52;3.70;49.70
3136;DHT22;1578;47.658;9.922;2024-01-06T14:54:18;3.60;49.20
3136;DHT22;1578;47.658;9.922;2024-01-06T14:56:43;3.50;49.50
3136;DHT22;1578;47.658;9.922;2024-01-06T14:59:09;3.50;50.70
3136;DHT22;1578;47.658;9.922;2024-01-06T15:01:35;3.60;50.50
3136;DHT22;1578;47.658;9.922;2024-01-06T15:04:00;3.60;50.30
3136;DHT22;1578;47.658;9.922;2024-01-06T15:06:26;3.60;50.10
3136;DHT22;1578;47.658;9.922;2024-01-06T15:08:52;3.70;50.30
3136;DHT22;1578;47.658;9.922;2024-01-06T15:11:19;3.50;49.90
3136;DHT22;1578;47.658;9.922;2024-01-06T15:13:45;3.60;50.80
3136;DHT22;1578;47.658;9.922;2024-01-06T15:16:11;3.70;50.40
3136;DHT22;1578;47.658;9.922;2024-01-06T15:18:36;3.70;49.20
3136;DHT22;1578;47.658;9.922;2024-01-06T15:21:02;3.70;48.90
3136;DHT22;1578;47.658;9.922;2024-01-06T15:23:27;3.60;50.10
3136;DHT22;1578;47.658;9.922;2024-01-06T15:25:53;3.50;50.80
3136;DHT22;1578;47.658;9.922;2024-01-06T15:28:20;3.60;50.40
3136;DHT22;1578;47.658;9.922;2024-01-06T15:30:46;3.50;50.30
3136;DHT22;1578;47.658;9.922;2024-01-06T15:33:12;3.50;50.60
3136;DHT22;1578;47.658;9.922;2024-01-06T15:35:39;3.40;51.30
3136;DHT22;1578;47.658;9.922;2024-01-06T15:38:05;3.30;51.50
3136;DHT22;1578;47.658;9.922;2024-01-06T15:40:31;3.40;52.20
3136;DHT22;1578;47.658;9.922;2024-01-06T15:42:57;3.40;52.10
3136;DHT22;1578;47.658;9.922;2024-01-06T15:45:23;3.30;52.10
3136;DHT22;1578;47.658;9.922;2024-01-06T15:47:49;3.20;52.60
3136;DHT22;1578;47.658;9.922;2024-01-06T15:50:15;3.30;52.90
3136;DHT22;1578;47.658;9.922;2024-01-06T15:52:40;3.40;52.00
3136;DHT22;1578;47.658;9.922;2024-01-06T15:55:07;3.30;51.80
3136;DHT22;1578;47.658;9.922;2024-01-06T15:57:33;3.30;51.20
3136;DHT22;1578;47.658;9.922;2024-01-06T15:59:59;3.20;51.10
3136;DHT22;1578;47.658;9.922;2024-01-06T16:02:24;3.20;51.10
3136;DHT22;1578;47.658;9.922;2024-01-06T16:04:50;3.20;51.10
3136;DHT22;1578;47.658;9.922;2024-01-06T16:07:17;3.20;51.10
3136;DHT22;1578;47.658;9.922;2024-01-06T16:09:43;3.20;51.70
3136;DHT22;1578;47.658;9.922;2024-01-06T16:12:09;3.20;51.10
3136;DHT22;1578;47.658;9.922;2024-01-06T16:14:36;3.20;51.10
3136;DHT22;1578;47.658;9.922;2024-01-06T16:17:03;3.10;51.10
3136;DHT22;1578;47.658;9.922;2024-01-06T16:19:30;3.10;51.60
3136;DHT22;1578;47.658;9.922;2024-01-06T16:21:59;3.20;51.60